sensor_id;sensor_type;location;lat;lon;timestamp;P1;durP1;ratioP1;P2;durP2;ratioP2
52620;SDS011;38515;53.160;6.990;2023-04-29T00:00:07;104.05;;;71.60;;
52620;SDS011;38515;53.160;6.990;2023-04-29T00:02:35;94.38;;;67.88;;
52620;SDS011;38515;53.160;6.990;2023-04-29T00:05:01;77.85;;;60.50;;
52620;SDS011;38515;53.160;6.990;2023-04-29T00:07:29;82.00;;;60.22;;
52620;SDS011;38515;53.160;6.990;2023-04-29T00:09:57;91.78;;;63.30;;
52620;SDS011;38515;53.160;6.990;2023-04-29T00:12:22;73.97;;;58.28;;
52620;SDS011;38515;53.160;6.990;2023-04-29T00:14:48;87.05;;;59.03;;
52620;SDS011;38515;53.160;6.990;2023-04-29T00:17:14;75.70;;;57.38;;
52620;SDS011;38515;53.160;6.990;2023-04-29T00:19:41;73.03;;;57.90;;
52620;SDS011;38515;53.160;6.990;2023-04-29T00:22:07;76.80;;;56.58;;
52620;SDS011;38515;53.160;6.990;2023-04-29T00:24:33;83.05;;;59.80;;
52620;SDS011;38515;53.160;6.990;2023-04-29T00:26:59;86.90;;;60.70;;
52620;SDS011;38515;53.160;6.990;2023-04-29T00:29:26;85.20;;;60.42;;
52620;SDS011;38515;53.160;6.990;2023-04-29T00:31:52;79.93;;;58.83;;
52620;SDS011;38515;53.160;6.990;2023-04-29T00:34:18;95.80;;;63.25;;
52620;SDS011;38515;53.160;6.990;2023-04-29T00:36:44;91.78;;;63.22;;
52620;SDS011;38515;53.160;6.990;2023-04-29T00:39:10;81.72;;;59.08;;
52620;SDS011;38515;53.160;6.990;2023-04-29T00:41:37;81.85;;;58.65;;
52620;SDS011;38515;53.160;6.990;2023-04-29T00:44:03;100.38;;;66.18;;
52620;SDS011;38515;53.160;6.990;2023-04-29T00:46:29;113.22;;;67.78;;
52620;SDS011;38515;53.160;6.990;2023-04-29T00:48:55;115.60;;;65.35;;
52620;SDS011;38515;53.160;6.990;2023-04-29T00:51:21;69.95;;;52.28;;
52620;SDS011;38515;53.160;6.990;2023-04-29T00:53:47;69.45;;;50.72;;
52620;SDS011;38515;53.160;6.990;2023-04-29T00:56:14;67.50;;;44.30;;
52620;SDS011;38515;53.160;6.990;2023-04-29T00:58:42;62.08;;;45.92;;
52620;SDS011;38515;53.160;6.990;2023-04-29T01:01:14;60.90;;;45.80;;
52620;SDS011;38515;53.160;6.990;2023-04-29T01:03:44;69.80;;;47.00;;
52620;SDS011;38515;53.160;6.990;2023-04-29T01:09:06;61.80;;;39.88;;
52620;SDS011;38515;53.160;6.990;2023-04-29T01:12:03;55.13;;;41.75;;
52620;SDS011;38515;53.160;6.990;2023-04-29T01:14:44;54.38;;;41.20;;
52620;SDS011;38515;53.160;6.990;2023-04-29T01:17:17;60.92;;;42.17;;
52620;SDS011;38515;53.160;6.990;2023-04-29T01:19:47;58.28;;;43.08;;
52620;SDS011;38515;53.160;6.990;2023-04-29T01:22:16;74.65;;;46.08;;
52620;SDS011;38515;53.160;6.990;2023-04-29T01:24:44;70.20;;;46.50;;
52620;SDS011;38515;53.160;6.990;2023-04-29T01:27:25;72.05;;;45.47;;
52620;SDS011;38515;53.160;6.990;2023-04-29T01:38:25;56.75;;;39.33;;
52620;SDS011;38515;53.160;6.990;2023-04-29T01:41:38;53.42;;;39.70;;
52620;SDS011;38515;53.160;6.990;2023-04-29T01:43:56;50.88;;;40.03;;
52620;SDS011;38515;53.160;6.990;2023-04-29T01:46:26;35.58;;;27.25;;
52620;SDS011;38515;53.160;6.990;2023-04-29T01:48:53;56.17;;;42.33;;
52620;SDS011;38515;53.160;6.990;2023-04-29T01:51:19;50.40;;;39.67;;
52620;SDS011;38515;53.160;6.990;2023-04-29T01:53:45;54.22;;;39.85;;
52620;SDS011;38515;53.160;6.990;2023-04-29T01:56:10;61.97;;;46.70;;
52620;SDS011;38515;53.160;6.990;2023-04-29T01:58:36;57.78;;;42.13;;
52620;SDS011;38515;53.160;6.990;2023-04-29T02:01:02;55.83;;;42.85;;
52620;SDS011;38515;53.160;6.990;2023-04-29T02:03:28;68.60;;;44.08;;
52620;SDS011;38515;53.160;6.990;2023-04-29T02:05:54;63.25;;;44.70;;
52620;SDS011;38515;53.160;6.990;2023-04-29T02:08:20;59.28;;;42.55;;
52620;SDS011;38515;53.160;6.990;2023-04-29T02:10:52;66.88;;;46.63;;
52620;SDS011;38515;53.160;6.990;2023-04-29T02:13:19;58.97;;;43.25;;
52620;SDS011;38515;53.160;6.990;2023-04-29T02:15:45;72.53;;;50.38;;
52620;SDS011;38515;53.160;6.990;2023-04-29T02:18:11;60.65;;;54.30;;
52620;SDS011;38515;53.160;6.990;2023-04-29T02:20:37;61.97;;;43.88;;
52620;SDS011;38515;53.160;6.990;2023-04-29T02:23:02;68.10;;;45.53;;
52620;SDS011;38515;53.160;6.990;2023-04-29T02:25:28;59.25;;;42.10;;
52620;SDS011;38515;53.160;6.990;2023-04-29T02:27:55;57.33;;;41.58;;
52620;SDS011;38515;53.160;6.990;2023-04-29T02:30:21;70.60;;;44.90;;
52620;SDS011;38515;53.160;6.990;2023-04-29T02:32:48;62.10;;;55.85;;
52620;SDS011;38515;53.160;6.990;2023-04-29T02:35:14;59.85;;;42.00;;
52620;SDS011;38515;53.160;6.990;2023-04-29T02:37:40;60.75;;;42.05;;
52620;SDS011;38515;53.160;6.990;2023-04-29T02:40:06;47.33;;;37.42;;
52620;SDS011;38515;53.160;6.990;2023-04-29T02:42:32;59.03;;;41.67;;
52620;SDS011;38515;53.160;6.990;2023-04-29T02:44:58;51.40;;;38.95;;
52620;SDS011;38515;53.160;6.990;2023-04-29T02:47:24;53.13;;;37.42;;
52620;SDS011;38515;53.160;6.990;2023-04-29T02:49:49;52.58;;;39.85;;
52620;SDS011;38515;53.160;6.990;2023-04-29T02:52:15;59.38;;;39.35;;
52620;SDS011;38515;53.160;6.990;2023-04-29T02:54:41;63.15;;;37.22;;
52620;SDS011;38515;53.160;6.990;2023-04-29T02:57:07;56.72;;;37.35;;
52620;SDS011;38515;53.160;6.990;2023-04-29T02:59:33;53.00;;;34.83;;
52620;SDS011;38515;53.160;6.990;2023-04-29T03:01:59;63.80;;;38.10;;
52620;SDS011;38515;53.160;6.990;2023-04-29T03:04:26;55.05;;;36.50;;
52620;SDS011;38515;53.160;6.990;2023-04-29T03:06:55;52.70;;;34.25;;
52620;SDS011;38515;53.160;6.990;2023-04-29T03:09:22;52.92;;;35.90;;
52620;SDS011;38515;53.160;6.990;2023-04-29T03:11:48;51.65;;;35.08;;
52620;SDS011;38515;53.160;6.990;2023-04-29T03:14:14;49.92;;;34.85;;
52620;SDS011;38515;53.160;6.990;2023-04-29T03:16:41;52.83;;;34.40;;
52620;SDS011;38515;53.160;6.990;2023-04-29T03:19:06;49.35;;;33.72;;
52620;SDS011;38515;53.160;6.990;2023-04-29T03:21:33;44.55;;;31.88;;
52620;SDS011;38515;53.160;6.990;2023-04-29T03:23:58;47.33;;;31.80;;
52620;SDS011;38515;53.160;6.990;2023-04-29T03:26:24;44.55;;;30.05;;
52620;SDS011;38515;53.160;6.990;2023-04-29T03:28:50;40.88;;;32.05;;
52620;SDS011;38515;53.160;6.990;2023-04-29T03:31:16;47.58;;;43.75;;
52620;SDS011;38515;53.160;6.990;2023-04-29T03:33:43;44.80;;;32.17;;
52620;SDS011;38515;53.160;6.990;2023-04-29T03:36:09;40.13;;;32.38;;
52620;SDS011;38515;53.160;6.990;2023-04-29T03:38:34;42.47;;;29.58;;
52620;SDS011;38515;53.160;6.990;2023-04-29T03:41:00;47.90;;;32.50;;
52620;SDS011;38515;53.160;6.990;2023-04-29T03:43:27;41.58;;;31.00;;
52620;SDS011;38515;53.160;6.990;2023-04-29T03:45:53;43.83;;;32.20;;
52620;SDS011;38515;53.160;6.990;2023-04-29T03:48:18;41.72;;;30.50;;
52620;SDS011;38515;53.160;6.990;2023-04-29T03:50:45;43.03;;;31.38;;
52620;SDS011;38515;53.160;6.990;2023-04-29T03:53:11;41.65;;;30.98;;
52620;SDS011;38515;53.160;6.990;2023-04-29T03:55:37;31.80;;;28.83;;
52620;SDS011;38515;53.160;6.990;2023-04-29T03:58:03;22.02;;;19.60;;
52620;SDS011;38515;53.160;6.990;2023-04-29T04:00:29;39.58;;;31.42;;
52620;SDS011;38515;53.160;6.990;2023-04-29T04:02:56;47.00;;;32.08;;
52620;SDS011;38515;53.160;6.990;2023-04-29T04:05:22;45.65;;;32.22;;
52620;SDS011;38515;53.160;6.990;2023-04-29T04:07:50;40.92;;;31.63;;
52620;SDS011;38515;53.160;6.990;2023-04-29T04:10:17;42.72;;;31.35;;
52620;SDS011;38515;53.160;6.990;2023-04-29T04:12:43;25.80;;;23.15;;
52620;SDS011;38515;53.160;6.990;2023-04-29T04:15:10;37.00;;;31.77;;
52620;SDS011;38515;53.160;6.990;2023-04-29T04:17:35;29.25;;;19.25;;
52620;SDS011;38515;53.160;6.990;2023-04-29T04:20:01;30.42;;;16.10;;
52620;SDS011;38515;53.160;6.990;2023-04-29T04:22:27;44.28;;;31.58;;
52620;SDS011;38515;53.160;6.990;2023-04-29T04:24:53;43.45;;;31.45;;
52620;SDS011;38515;53.160;6.990;2023-04-29T04:27:19;46.20;;;33.25;;
52620;SDS011;38515;53.160;6.990;2023-04-29T04:29:45;42.97;;;34.08;;
52620;SDS011;38515;53.160;6.990;2023-04-29T04:32:11;50.90;;;34.15;;
52620;SDS011;38515;53.160;6.990;2023-04-29T04:34:37;45.10;;;33.17;;
52620;SDS011;38515;53.160;6.990;2023-04-29T04:37:06;47.55;;;35.20;;
52620;SDS011;38515;53.160;6.990;2023-04-29T04:39:32;46.67;;;36.25;;
52620;SDS011;38515;53.160;6.990;2023-04-29T04:41:58;49.63;;;35.75;;
52620;SDS011;38515;53.160;6.990;2023-04-29T04:44:23;50.47;;;34.30;;
52620;SDS011;38515;53.160;6.990;2023-04-29T04:46:49;47.50;;;33.80;;
52620;SDS011;38515;53.160;6.990;2023-04-29T04:49:16;48.58;;;35.25;;
52620;SDS011;38515;53.160;6.990;2023-04-29T04:51:45;42.55;;;33.05;;
52620;SDS011;38515;53.160;6.990;2023-04-29T04:54:11;50.42;;;35.33;;
52620;SDS011;38515;53.160;6.990;2023-04-29T04:56:37;43.95;;;32.75;;
52620;SDS011;38515;53.160;6.990;2023-04-29T04:59:03;41.58;;;32.15;;
52620;SDS011;38515;53.160;6.990;2023-04-29T05:01:29;40.28;;;30.58;;
52620;SDS011;38515;53.160;6.990;2023-04-29T05:03:55;39.33;;;28.80;;
52620;SDS011;38515;53.160;6.990;2023-04-29T05:06:21;24.48;;;17.63;;
52620;SDS011;38515;53.160;6.990;2023-04-29T05:08:48;44.60;;;27.63;;
52620;SDS011;38515;53.160;6.990;2023-04-29T05:11:14;35.50;;;27.90;;
52620;SDS011;38515;53.160;6.990;2023-04-29T05:13:41;43.90;;;29.38;;
52620;SDS011;38515;53.160;6.990;2023-04-29T05:16:08;44.70;;;31.08;;
52620;SDS011;38515;53.160;6.990;2023-04-29T05:18:34;39.47;;;29.50;;
52620;SDS011;38515;53.160;6.990;2023-04-29T05:21:00;46.20;;;29.95;;
52620;SDS011;38515;53.160;6.990;2023-04-29T05:23:26;43.83;;;32.25;;
52620;SDS011;38515;53.160;6.990;2023-04-29T05:25:52;38.88;;;30.98;;
52620;SDS011;38515;53.160;6.990;2023-04-29T05:28:18;41.80;;;32.25;;
52620;SDS011;38515;53.160;6.990;2023-04-29T05:30:44;46.38;;;34.28;;
52620;SDS011;38515;53.160;6.990;2023-04-29T05:33:10;43.42;;;31.38;;
52620;SDS011;38515;53.160;6.990;2023-04-29T05:35:36;43.88;;;33.22;;
52620;SDS011;38515;53.160;6.990;2023-04-29T05:38:02;25.60;;;21.23;;
52620;SDS011;38515;53.160;6.990;2023-04-29T05:40:28;41.42;;;29.40;;
52620;SDS011;38515;53.160;6.990;2023-04-29T05:42:54;40.45;;;30.27;;
52620;SDS011;38515;53.160;6.990;2023-04-29T05:45:19;36.78;;;28.73;;
52620;SDS011;38515;53.160;6.990;2023-04-29T05:47:45;36.38;;;28.45;;
52620;SDS011;38515;53.160;6.990;2023-04-29T05:50:11;34.25;;;28.40;;
52620;SDS011;38515;53.160;6.990;2023-04-29T05:52:37;35.42;;;27.35;;
52620;SDS011;38515;53.160;6.990;2023-04-29T05:55:03;36.83;;;27.95;;
52620;SDS011;38515;53.160;6.990;2023-04-29T05:57:29;35.75;;;26.45;;
52620;SDS011;38515;53.160;6.990;2023-04-29T05:59:56;32.05;;;25.63;;
52620;SDS011;38515;53.160;6.990;2023-04-29T06:02:23;33.65;;;26.95;;
52620;SDS011;38515;53.160;6.990;2023-04-29T06:04:50;33.50;;;25.70;;
52620;SDS011;38515;53.160;6.990;2023-04-29T06:07:15;31.15;;;24.20;;
52620;SDS011;38515;53.160;6.990;2023-04-29T06:09:45;31.08;;;21.05;;
52620;SDS011;38515;53.160;6.990;2023-04-29T06:12:13;30.45;;;23.48;;
52620;SDS011;38515;53.160;6.990;2023-04-29T06:14:46;30.48;;;23.13;;
52620;SDS011;38515;53.160;6.990;2023-04-29T06:17:13;31.08;;;22.52;;
52620;SDS011;38515;53.160;6.990;2023-04-29T06:19:41;29.20;;;22.38;;
52620;SDS011;38515;53.160;6.990;2023-04-29T06:22:07;26.15;;;20.98;;
52620;SDS011;38515;53.160;6.990;2023-04-29T06:24:33;23.85;;;19.50;;
52620;SDS011;38515;53.160;6.990;2023-04-29T06:26:59;33.10;;;24.92;;
52620;SDS011;38515;53.160;6.990;2023-04-29T06:29:24;25.67;;;20.13;;
52620;SDS011;38515;53.160;6.990;2023-04-29T06:31:50;23.30;;;20.30;;
52620;SDS011;38515;53.160;6.990;2023-04-29T06:34:18;24.27;;;19.27;;
52620;SDS011;38515;53.160;6.990;2023-04-29T06:36:44;26.40;;;19.35;;
52620;SDS011;38515;53.160;6.990;2023-04-29T06:39:09;27.38;;;18.70;;
52620;SDS011;38515;53.160;6.990;2023-04-29T06:41:35;25.23;;;18.85;;
52620;SDS011;38515;53.160;6.990;2023-04-29T06:44:01;24.25;;;19.48;;
52620;SDS011;38515;53.160;6.990;2023-04-29T06:46:27;23.13;;;17.38;;
52620;SDS011;38515;53.160;6.990;2023-04-29T06:48:53;23.45;;;17.20;;
52620;SDS011;38515;53.160;6.990;2023-04-29T06:51:19;24.83;;;18.00;;
52620;SDS011;38515;53.160;6.990;2023-04-29T06:53:45;21.35;;;19.10;;
52620;SDS011;38515;53.160;6.990;2023-04-29T06:56:12;21.33;;;18.42;;
52620;SDS011;38515;53.160;6.990;2023-04-29T06:58:38;21.40;;;17.90;;
52620;SDS011;38515;53.160;6.990;2023-04-29T07:01:04;20.52;;;16.92;;
52620;SDS011;38515;53.160;6.990;2023-04-29T07:03:31;21.98;;;19.95;;
52620;SDS011;38515;53.160;6.990;2023-04-29T07:05:57;24.83;;;19.85;;
52620;SDS011;38515;53.160;6.990;2023-04-29T07:08:22;22.58;;;20.58;;
52620;SDS011;38515;53.160;6.990;2023-04-29T07:10:55;22.25;;;20.02;;
52620;SDS011;38515;53.160;6.990;2023-04-29T07:13:21;22.65;;;17.40;;
52620;SDS011;38515;53.160;6.990;2023-04-29T07:15:48;20.17;;;18.23;;
52620;SDS011;38515;53.160;6.990;2023-04-29T07:18:13;26.75;;;17.67;;
52620;SDS011;38515;53.160;6.990;2023-04-29T07:20:39;17.33;;;14.18;;
52620;SDS011;38515;53.160;6.990;2023-04-29T07:23:06;18.25;;;14.35;;
52620;SDS011;38515;53.160;6.990;2023-04-29T07:25:31;14.93;;;12.40;;
52620;SDS011;38515;53.160;6.990;2023-04-29T07:28:05;16.23;;;14.55;;
52620;SDS011;38515;53.160;6.990;2023-04-29T07:30:33;20.30;;;12.88;;
52620;SDS011;38515;53.160;6.990;2023-04-29T07:33:00;14.63;;;13.13;;
52620;SDS011;38515;53.160;6.990;2023-04-29T07:35:32;15.95;;;13.82;;
52620;SDS011;38515;53.160;6.990;2023-04-29T07:37:58;15.20;;;13.23;;
52620;SDS011;38515;53.160;6.990;2023-04-29T07:40:24;20.08;;;14.07;;
52620;SDS011;38515;53.160;6.990;2023-04-29T07:42:50;15.02;;;12.48;;
52620;SDS011;38515;53.160;6.990;2023-04-29T07:45:16;15.75;;;13.68;;
52620;SDS011;38515;53.160;6.990;2023-04-29T07:47:45;16.02;;;14.35;;
52620;SDS011;38515;53.160;6.990;2023-04-29T07:50:11;15.40;;;13.75;;
52620;SDS011;38515;53.160;6.990;2023-04-29T07:52:37;16.50;;;13.10;;
52620;SDS011;38515;53.160;6.990;2023-04-29T07:55:03;15.02;;;13.60;;
52620;SDS011;38515;53.160;6.990;2023-04-29T07:57:29;16.40;;;12.65;;
52620;SDS011;38515;53.160;6.990;2023-04-29T07:59:55;17.67;;;12.65;;
52620;SDS011;38515;53.160;6.990;2023-04-29T08:02:21;15.98;;;13.57;;
52620;SDS011;38515;53.160;6.990;2023-04-29T08:04:49;16.70;;;14.98;;
52620;SDS011;38515;53.160;6.990;2023-04-29T08:07:15;15.25;;;12.25;;
52620;SDS011;38515;53.160;6.990;2023-04-29T08:09:41;16.58;;;12.38;;
52620;SDS011;38515;53.160;6.990;2023-04-29T08:12:07;17.67;;;13.60;;
52620;SDS011;38515;53.160;6.990;2023-04-29T08:14:33;15.02;;;12.75;;
52620;SDS011;38515;53.160;6.990;2023-04-29T08:16:59;14.30;;;12.80;;
52620;SDS011;38515;53.160;6.990;2023-04-29T08:19:25;16.58;;;12.23;;
52620;SDS011;38515;53.160;6.990;2023-04-29T08:21:50;13.05;;;11.73;;
52620;SDS011;38515;53.160;6.990;2023-04-29T08:24:16;11.90;;;10.68;;
52620;SDS011;38515;53.160;6.990;2023-04-29T08:26:42;14.43;;;11.90;;
52620;SDS011;38515;53.160;6.990;2023-04-29T08:29:08;14.88;;;11.13;;
52620;SDS011;38515;53.160;6.990;2023-04-29T08:31:34;13.02;;;10.95;;
52620;SDS011;38515;53.160;6.990;2023-04-29T08:34:00;13.75;;;11.73;;
52620;SDS011;38515;53.160;6.990;2023-04-29T08:36:26;14.00;;;12.00;;
52620;SDS011;38515;53.160;6.990;2023-04-29T08:38:54;13.75;;;11.45;;
52620;SDS011;38515;53.160;6.990;2023-04-29T08:41:20;13.05;;;10.65;;
52620;SDS011;38515;53.160;6.990;2023-04-29T08:43:47;12.75;;;11.63;;
52620;SDS011;38515;53.160;6.990;2023-04-29T08:46:13;15.40;;;13.43;;
52620;SDS011;38515;53.160;6.990;2023-04-29T08:48:39;13.60;;;10.52;;
52620;SDS011;38515;53.160;6.990;2023-04-29T08:51:06;16.23;;;12.00;;
52620;SDS011;38515;53.160;6.990;2023-04-29T08:53:32;16.25;;;14.65;;
52620;SDS011;38515;53.160;6.990;2023-04-29T08:56:00;15.52;;;13.90;;
52620;SDS011;38515;53.160;6.990;2023-04-29T08:58:33;13.88;;;12.52;;
52620;SDS011;38515;53.160;6.990;2023-04-29T09:01:00;14.13;;;12.60;;
52620;SDS011;38515;53.160;6.990;2023-04-29T09:03:29;14.43;;;11.73;;
52620;SDS011;38515;53.160;6.990;2023-04-29T09:06:01;12.90;;;10.33;;
52620;SDS011;38515;53.160;6.990;2023-04-29T09:08:29;12.90;;;11.60;;
52620;SDS011;38515;53.160;6.990;2023-04-29T09:10:56;15.18;;;11.88;;
52620;SDS011;38515;53.160;6.990;2023-04-29T09:13:24;13.43;;;12.13;;
52620;SDS011;38515;53.160;6.990;2023-04-29T09:15:54;15.77;;;10.52;;
52620;SDS011;38515;53.160;6.990;2023-04-29T09:23:48;17.10;;;15.63;;
52620;SDS011;38515;53.160;6.990;2023-04-29T09:26:16;11.07;;;9.68;;
52620;SDS011;38515;53.160;6.990;2023-04-29T09:28:42;12.77;;;9.48;;
52620;SDS011;38515;53.160;6.990;2023-04-29T09:31:12;17.23;;;15.65;;
52620;SDS011;38515;53.160;6.990;2023-04-29T09:33:48;15.95;;;14.75;;
52620;SDS011;38515;53.160;6.990;2023-04-29T09:39:05;12.73;;;11.63;;
52620;SDS011;38515;53.160;6.990;2023-04-29T09:41:36;21.40;;;19.45;;
52620;SDS011;38515;53.160;6.990;2023-04-29T09:44:08;16.17;;;14.95;;
52620;SDS011;38515;53.160;6.990;2023-04-29T09:46:35;13.00;;;11.75;;
52620;SDS011;38515;53.160;6.990;2023-04-29T09:49:20;16.00;;;14.90;;
52620;SDS011;38515;53.160;6.990;2023-04-29T09:52:11;16.50;;;15.27;;
52620;SDS011;38515;53.160;6.990;2023-04-29T09:54:39;12.50;;;11.45;;
52620;SDS011;38515;53.160;6.990;2023-04-29T09:57:07;12.18;;;8.18;;
52620;SDS011;38515;53.160;6.990;2023-04-29T09:59:34;17.20;;;15.85;;
52620;SDS011;38515;53.160;6.990;2023-04-29T10:02:13;15.65;;;14.15;;
52620;SDS011;38515;53.160;6.990;2023-04-29T10:04:52;15.38;;;14.35;;
52620;SDS011;38515;53.160;6.990;2023-04-29T10:07:21;15.82;;;14.82;;
52620;SDS011;38515;53.160;6.990;2023-04-29T10:09:47;15.20;;;13.75;;
52620;SDS011;38515;53.160;6.990;2023-04-29T10:12:17;17.30;;;15.57;;
52620;SDS011;38515;53.160;6.990;2023-04-29T10:15:02;21.45;;;19.55;;
52620;SDS011;38515;53.160;6.990;2023-04-29T10:20:21;16.13;;;14.93;;
52620;SDS011;38515;53.160;6.990;2023-04-29T10:22:49;14.02;;;12.73;;
52620;SDS011;38515;53.160;6.990;2023-04-29T10:25:18;14.77;;;13.23;;
52620;SDS011;38515;53.160;6.990;2023-04-29T10:27:46;12.18;;;11.18;;
52620;SDS011;38515;53.160;6.990;2023-04-29T10:30:17;17.63;;;16.08;;
52620;SDS011;38515;53.160;6.990;2023-04-29T10:32:46;11.77;;;10.68;;
52620;SDS011;38515;53.160;6.990;2023-04-29T10:35:13;14.68;;;13.18;;
52620;SDS011;38515;53.160;6.990;2023-04-29T10:37:44;13.23;;;12.02;;
52620;SDS011;38515;53.160;6.990;2023-04-29T10:42:46;14.02;;;12.82;;
52620;SDS011;38515;53.160;6.990;2023-04-29T10:45:20;11.82;;;10.75;;
52620;SDS011;38515;53.160;6.990;2023-04-29T10:53:18;16.90;;;15.32;;
52620;SDS011;38515;53.160;6.990;2023-04-29T10:55:46;16.80;;;15.10;;
52620;SDS011;38515;53.160;6.990;2023-04-29T10:58:33;15.05;;;13.65;;
52620;SDS011;38515;53.160;6.990;2023-04-29T11:00:59;17.02;;;15.90;;
52620;SDS011;38515;53.160;6.990;2023-04-29T11:03:44;14.35;;;13.18;;
52620;SDS011;38515;53.160;6.990;2023-04-29T11:06:13;17.67;;;16.35;;
52620;SDS011;38515;53.160;6.990;2023-04-29T11:08:40;14.02;;;12.70;;
52620;SDS011;38515;53.160;6.990;2023-04-29T11:11:07;19.98;;;18.48;;
52620;SDS011;38515;53.160;6.990;2023-04-29T11:13:38;14.82;;;13.52;;
52620;SDS011;38515;53.160;6.990;2023-04-29T11:16:05;15.43;;;14.23;;
52620;SDS011;38515;53.160;6.990;2023-04-29T11:18:32;15.10;;;13.60;;
52620;SDS011;38515;53.160;6.990;2023-04-29T11:23:34;14.13;;;9.70;;
52620;SDS011;38515;53.160;6.990;2023-04-29T11:26:01;16.90;;;15.20;;
52620;SDS011;38515;53.160;6.990;2023-04-29T11:28:28;13.90;;;12.27;;
52620;SDS011;38515;53.160;6.990;2023-04-29T11:30:56;16.77;;;10.30;;
52620;SDS011;38515;53.160;6.990;2023-04-29T11:33:23;11.85;;;10.63;;
52620;SDS011;38515;53.160;6.990;2023-04-29T11:35:49;14.10;;;11.43;;
52620;SDS011;38515;53.160;6.990;2023-04-29T11:38:16;12.75;;;11.45;;
52620;SDS011;38515;53.160;6.990;2023-04-29T11:40:49;12.93;;;11.68;;
52620;SDS011;38515;53.160;6.990;2023-04-29T11:43:16;15.40;;;14.20;;
52620;SDS011;38515;53.160;6.990;2023-04-29T11:45:45;16.90;;;15.65;;
52620;SDS011;38515;53.160;6.990;2023-04-29T11:48:24;10.73;;;9.93;;
52620;SDS011;38515;53.160;6.990;2023-04-29T11:50:56;13.30;;;12.20;;
52620;SDS011;38515;53.160;6.990;2023-04-29T11:53:23;11.30;;;10.48;;
52620;SDS011;38515;53.160;6.990;2023-04-29T11:55:55;12.52;;;11.60;;
52620;SDS011;38515;53.160;6.990;2023-04-29T11:58:21;13.60;;;12.50;;
52620;SDS011;38515;53.160;6.990;2023-04-29T12:00:50;14.43;;;13.27;;
52620;SDS011;38515;53.160;6.990;2023-04-29T12:03:17;14.48;;;13.32;;
52620;SDS011;38515;53.160;6.990;2023-04-29T12:05:46;15.93;;;14.88;;
52620;SDS011;38515;53.160;6.990;2023-04-29T12:08:18;13.45;;;12.20;;
52620;SDS011;38515;53.160;6.990;2023-04-29T12:10:47;11.73;;;10.63;;
52620;SDS011;38515;53.160;6.990;2023-04-29T12:13:18;12.70;;;11.70;;
52620;SDS011;38515;53.160;6.990;2023-04-29T12:15:44;11.02;;;10.32;;
52620;SDS011;38515;53.160;6.990;2023-04-29T12:18:12;12.32;;;10.82;;
52620;SDS011;38515;53.160;6.990;2023-04-29T12:20:38;10.93;;;10.13;;
52620;SDS011;38515;53.160;6.990;2023-04-29T12:23:15;11.45;;;10.65;;
52620;SDS011;38515;53.160;6.990;2023-04-29T12:25:53;10.80;;;9.63;;
52620;SDS011;38515;53.160;6.990;2023-04-29T12:28:21;9.20;;;7.20;;
52620;SDS011;38515;53.160;6.990;2023-04-29T12:30:48;7.88;;;7.07;;
52620;SDS011;38515;53.160;6.990;2023-04-29T12:33:28;8.82;;;8.02;;
52620;SDS011;38515;53.160;6.990;2023-04-29T12:35:55;10.63;;;9.93;;
52620;SDS011;38515;53.160;6.990;2023-04-29T12:38:29;10.90;;;10.07;;
52620;SDS011;38515;53.160;6.990;2023-04-29T12:40:57;10.57;;;8.95;;
52620;SDS011;38515;53.160;6.990;2023-04-29T12:43:24;12.02;;;11.00;;
52620;SDS011;38515;53.160;6.990;2023-04-29T12:45:59;11.85;;;11.10;;
52620;SDS011;38515;53.160;6.990;2023-04-29T12:48:31;10.88;;;10.18;;
52620;SDS011;38515;53.160;6.990;2023-04-29T12:50:58;9.10;;;7.97;;
52620;SDS011;38515;53.160;6.990;2023-04-29T12:53:25;8.95;;;7.88;;
52620;SDS011;38515;53.160;6.990;2023-04-29T12:55:53;9.63;;;8.73;;
52620;SDS011;38515;53.160;6.990;2023-04-29T12:58:19;11.07;;;10.38;;
52620;SDS011;38515;53.160;6.990;2023-04-29T13:00:45;9.38;;;8.55;;
52620;SDS011;38515;53.160;6.990;2023-04-29T13:03:11;10.93;;;10.10;;
52620;SDS011;38515;53.160;6.990;2023-04-29T13:05:38;12.75;;;11.52;;
52620;SDS011;38515;53.160;6.990;2023-04-29T13:08:05;10.65;;;9.90;;
52620;SDS011;38515;53.160;6.990;2023-04-29T13:10:31;9.20;;;8.50;;
52620;SDS011;38515;53.160;6.990;2023-04-29T13:12:57;10.63;;;9.93;;
52620;SDS011;38515;53.160;6.990;2023-04-29T13:15:24;4.78;;;4.07;;
52620;SDS011;38515;53.160;6.990;2023-04-29T13:17:50;4.65;;;4.10;;
52620;SDS011;38515;53.160;6.990;2023-04-29T13:20:20;5.97;;;4.78;;
52620;SDS011;38515;53.160;6.990;2023-04-29T13:22:45;4.75;;;4.30;;
52620;SDS011;38515;53.160;6.990;2023-04-29T13:25:12;6.82;;;4.78;;
52620;SDS011;38515;53.160;6.990;2023-04-29T13:27:40;8.48;;;4.38;;
52620;SDS011;38515;53.160;6.990;2023-04-29T13:30:06;4.50;;;4.10;;
52620;SDS011;38515;53.160;6.990;2023-04-29T13:32:33;5.50;;;4.57;;
52620;SDS011;38515;53.160;6.990;2023-04-29T13:34:59;5.97;;;4.70;;
52620;SDS011;38515;53.160;6.990;2023-04-29T13:37:25;5.68;;;4.30;;
52620;SDS011;38515;53.160;6.990;2023-04-29T13:39:50;6.43;;;5.82;;
52620;SDS011;38515;53.160;6.990;2023-04-29T13:42:17;5.82;;;5.30;;
52620;SDS011;38515;53.160;6.990;2023-04-29T13:44:43;7.20;;;5.18;;
52620;SDS011;38515;53.160;6.990;2023-04-29T13:47:09;6.72;;;5.85;;
52620;SDS011;38515;53.160;6.990;2023-04-29T13:49:37;7.18;;;5.70;;
52620;SDS011;38515;53.160;6.990;2023-04-29T13:52:08;6.88;;;6.20;;
52620;SDS011;38515;53.160;6.990;2023-04-29T13:54:35;7.30;;;6.60;;
52620;SDS011;38515;53.160;6.990;2023-04-29T13:57:01;6.78;;;6.10;;
52620;SDS011;38515;53.160;6.990;2023-04-29T13:59:30;7.97;;;7.22;;
52620;SDS011;38515;53.160;6.990;2023-04-29T14:01:57;11.50;;;9.18;;
52620;SDS011;38515;53.160;6.990;2023-04-29T14:04:24;10.00;;;8.50;;
52620;SDS011;38515;53.160;6.990;2023-04-29T14:06:50;11.18;;;9.75;;
52620;SDS011;38515;53.160;6.990;2023-04-29T14:09:17;11.90;;;9.98;;
52620;SDS011;38515;53.160;6.990;2023-04-29T14:11:44;10.63;;;9.50;;
52620;SDS011;38515;53.160;6.990;2023-04-29T14:14:10;11.27;;;10.10;;
52620;SDS011;38515;53.160;6.990;2023-04-29T14:16:37;14.75;;;10.38;;
52620;SDS011;38515;53.160;6.990;2023-04-29T14:19:02;14.45;;;12.07;;
52620;SDS011;38515;53.160;6.990;2023-04-29T14:21:29;11.88;;;10.40;;
52620;SDS011;38515;53.160;6.990;2023-04-29T14:23:57;14.85;;;10.98;;
52620;SDS011;38515;53.160;6.990;2023-04-29T14:26:23;15.95;;;11.20;;
52620;SDS011;38515;53.160;6.990;2023-04-29T14:28:51;13.77;;;12.48;;
52620;SDS011;38515;53.160;6.990;2023-04-29T14:31:24;19.60;;;17.50;;
52620;SDS011;38515;53.160;6.990;2023-04-29T14:33:58;20.15;;;17.95;;
52620;SDS011;38515;53.160;6.990;2023-04-29T14:36:24;22.13;;;19.15;;
52620;SDS011;38515;53.160;6.990;2023-04-29T14:38:51;16.63;;;15.00;;
52620;SDS011;38515;53.160;6.990;2023-04-29T14:41:17;15.75;;;14.05;;
52620;SDS011;38515;53.160;6.990;2023-04-29T14:43:43;17.27;;;15.00;;
52620;SDS011;38515;53.160;6.990;2023-04-29T14:46:09;14.10;;;11.65;;
52620;SDS011;38515;53.160;6.990;2023-04-29T14:48:35;14.40;;;10.15;;
52620;SDS011;38515;53.160;6.990;2023-04-29T14:51:00;14.07;;;10.70;;
52620;SDS011;38515;53.160;6.990;2023-04-29T14:53:26;15.05;;;13.55;;
52620;SDS011;38515;53.160;6.990;2023-04-29T14:55:52;14.18;;;12.98;;
52620;SDS011;38515;53.160;6.990;2023-04-29T14:58:18;20.45;;;18.70;;